createdAt,value
2022-08-14T00:00:13.703Z,22.80
2022-08-14T00:01:12.632Z,22.78
2022-08-14T00:02:12.745Z,22.78
2022-08-14T00:03:12.621Z,22.80
2022-08-14T00:04:32.283Z,22.81
2022-08-14T00:05:13.573Z,22.83
2022-08-14T00:06:13.858Z,22.83
2022-08-14T00:07:13.965Z,22.81
2022-08-14T00:08:14.314Z,22.81
2022-08-14T00:09:12.582Z,22.83
2022-08-14T00:10:52.998Z,22.84
2022-08-14T00:11:13.646Z,22.84
2022-08-14T00:12:24.076Z,22.84
2022-08-14T00:13:13.563Z,22.83
2022-08-14T00:14:17.303Z,22.83
2022-08-14T00:15:15.048Z,22.83
2022-08-14T00:16:12.443Z,22.83
2022-08-14T00:17:13.424Z,22.83
2022-08-14T00:18:14.525Z,22.83
2022-08-14T00:19:19.197Z,22.81
2022-08-14T00:20:13.393Z,22.81
2022-08-14T00:21:12.374Z,22.81
2022-08-14T00:22:12.353Z,22.81
2022-08-14T00:23:17.213Z,22.78
2022-08-14T00:24:12.338Z,22.78
2022-08-14T00:25:12.309Z,22.78
2022-08-14T00:26:21.478Z,22.77
2022-08-14T00:27:13.287Z,22.76
2022-08-14T00:28:14.991Z,22.70
2022-08-14T00:29:12.270Z,22.71
2022-08-14T00:30:14.309Z,22.68
2022-08-14T00:31:13.236Z,22.68
2022-08-14T00:32:55.643Z,22.65
2022-08-14T00:33:16.580Z,22.67
2022-08-14T00:34:37.870Z,22.67
2022-08-14T00:35:13.168Z,22.65
2022-08-14T00:36:35.797Z,22.62
2022-08-14T00:37:13.149Z,22.61
2022-08-14T00:38:12.137Z,22.59
2022-08-14T00:39:12.139Z,22.56
2022-08-14T00:40:27.420Z,22.56
2022-08-14T00:41:13.107Z,22.52
2022-08-14T00:42:21.188Z,22.49
2022-08-14T00:43:13.223Z,22.47
2022-08-14T00:44:12.076Z,22.44
2022-08-14T00:45:12.039Z,22.37
2022-08-14T00:46:23.457Z,22.31
2022-08-14T00:47:13.009Z,22.28
2022-08-14T00:48:12.007Z,22.23
2022-08-14T00:49:14.625Z,22.23
2022-08-14T00:50:17.743Z,22.23
2022-08-14T00:51:12.959Z,22.23
2022-08-14T00:52:14.129Z,22.22
2022-08-14T00:53:12.930Z,22.19
2022-08-14T00:54:21.301Z,22.16
2022-08-14T00:55:13.931Z,22.18
2022-08-14T00:56:15.592Z,22.18
2022-08-14T00:57:11.882Z,22.16
2022-08-14T00:58:11.872Z,22.14
2022-08-14T00:59:11.870Z,22.08
2022-08-14T01:00:26.747Z,22.03
2022-08-14T01:01:12.894Z,21.97
2022-08-14T01:02:11.848Z,21.91
2022-08-14T01:03:11.812Z,21.88
2022-08-14T01:04:37.661Z,21.85
2022-08-14T01:05:12.781Z,21.83
2022-08-14T01:06:11.781Z,21.81
2022-08-14T01:07:11.751Z,21.77
2022-08-14T01:08:20.684Z,21.70
2022-08-14T01:09:12.732Z,21.66
2022-08-14T01:10:11.702Z,21.60
2022-08-14T01:11:11.709Z,21.56
2022-08-14T01:12:12.683Z,21.51
2022-08-14T01:13:12.667Z,21.50
2022-08-14T01:14:25.353Z,21.45
2022-08-14T01:15:14.773Z,21.45
2022-08-14T01:16:14.767Z,21.43
2022-08-14T01:17:11.604Z,21.40
2022-08-14T01:18:11.605Z,21.37
2022-08-14T01:19:11.921Z,21.35
2022-08-14T01:20:27.754Z,21.33
2022-08-14T01:21:12.551Z,21.30
2022-08-14T01:22:12.531Z,21.30
2022-08-14T01:23:15.813Z,21.30
2022-08-14T01:24:12.535Z,21.28
2022-08-14T01:25:11.506Z,21.23
2022-08-14T01:26:11.849Z,21.19
2022-08-14T01:27:12.497Z,21.19
2022-08-14T01:28:11.501Z,21.15
2022-08-14T01:29:16.229Z,21.14
2022-08-14T01:30:12.435Z,21.11
2022-08-14T01:31:11.425Z,21.10
2022-08-14T01:32:11.418Z,21.08
2022-08-14T01:33:11.396Z,21.08
2022-08-14T01:35:17.958Z,21.05
2022-08-14T01:35:18.702Z,21.07
2022-08-14T01:36:23.073Z,21.03
2022-08-14T01:37:12.337Z,21.01
2022-08-14T01:38:11.335Z,21.04
2022-08-14T01:39:12.845Z,21.04
2022-08-14T01:40:11.329Z,21.03
2022-08-14T01:41:14.824Z,21.04
2022-08-14T01:42:11.273Z,21.00
2022-08-14T01:43:12.277Z,20.98
2022-08-14T01:44:32.969Z,20.96
2022-08-14T01:45:12.230Z,20.92
2022-08-14T01:46:24.616Z,20.92
2022-08-14T01:47:16.515Z,20.92
2022-08-14T01:48:13.577Z,20.90
2022-08-14T01:49:11.171Z,20.88
2022-08-14T01:50:11.201Z,20.85
2022-08-14T01:51:18.796Z,20.83
2022-08-14T01:52:13.389Z,20.80
2022-08-14T01:53:12.118Z,20.78
2022-08-14T01:54:11.115Z,20.75
2022-08-14T01:55:11.108Z,20.75
2022-08-14T01:56:12.206Z,20.73
2022-08-14T01:57:12.088Z,20.71
2022-08-14T01:58:19.666Z,20.71
2022-08-14T01:59:14.572Z,20.68
2022-08-14T02:00:12.037Z,20.66
2022-08-14T02:01:11.071Z,20.63
2022-08-14T02:02:10.999Z,20.59
2022-08-14T02:03:11.990Z,20.58
2022-08-14T02:04:20.516Z,20.52
2022-08-14T02:05:11.979Z,20.46
2022-08-14T02:06:32.127Z,20.39
2022-08-14T02:07:15.603Z,20.30
2022-08-14T02:08:10.927Z,20.24
2022-08-14T02:09:19.179Z,20.21
2022-08-14T02:10:12.921Z,20.14
2022-08-14T02:11:10.901Z,20.08
2022-08-14T02:12:10.898Z,20.07
2022-08-14T02:13:11.851Z,20.07
2022-08-14T02:14:10.840Z,20.02
2022-08-14T02:15:10.852Z,19.97
2022-08-14T02:16:21.834Z,19.96
2022-08-14T02:17:11.801Z,19.96
2022-08-14T02:18:11.817Z,19.97
2022-08-14T02:19:10.772Z,19.96
2022-08-14T02:20:10.766Z,19.94
2022-08-14T02:21:10.752Z,19.93
2022-08-14T02:22:10.732Z,19.87
2022-08-14T02:23:11.481Z,19.84
2022-08-14T02:24:40.406Z,19.82
2022-08-14T02:25:11.752Z,19.84
2022-08-14T02:26:24.313Z,19.82
2022-08-14T02:28:23.171Z,19.81
2022-08-14T02:28:24.027Z,19.81
2022-08-14T02:29:11.642Z,19.79
2022-08-14T02:30:10.660Z,19.79
2022-08-14T02:31:10.623Z,19.79
2022-08-14T02:32:10.601Z,19.77
2022-08-14T02:33:11.593Z,19.75
2022-08-14T02:34:19.975Z,19.75
2022-08-14T02:35:11.606Z,19.72
2022-08-14T02:37:03.510Z,19.70
2022-08-14T02:37:11.533Z,19.66
2022-08-14T02:38:11.554Z,19.66
2022-08-14T02:39:10.512Z,19.71
2022-08-14T02:40:10.504Z,19.75
2022-08-14T02:41:11.080Z,19.78
2022-08-14T02:42:12.743Z,19.82
2022-08-14T02:43:10.507Z,19.85
2022-08-14T02:44:10.442Z,19.90
2022-08-14T02:45:10.443Z,19.92
2022-08-14T02:46:10.407Z,19.92
2022-08-14T02:47:15.000Z,19.93
2022-08-14T02:49:02.759Z,19.94
2022-08-14T02:49:11.375Z,19.97
2022-08-14T02:50:10.375Z,20.00
2022-08-14T02:51:10.358Z,20.02
2022-08-14T02:52:56.049Z,20.00
2022-08-14T02:53:11.325Z,19.96
2022-08-14T02:54:13.078Z,19.94
2022-08-14T02:55:11.315Z,19.90
2022-08-14T02:56:30.383Z,19.85
2022-08-14T02:57:16.255Z,19.81
2022-08-14T02:58:11.246Z,19.78
2022-08-14T02:59:11.285Z,19.75
2022-08-14T03:00:10.577Z,19.75
2022-08-14T03:01:10.337Z,19.70
2022-08-14T03:02:33.562Z,19.62
2022-08-14T03:03:11.187Z,19.57
2022-08-14T03:04:10.562Z,19.52
2022-08-14T03:05:10.186Z,19.48
2022-08-14T03:06:10.137Z,19.42
2022-08-14T03:07:10.125Z,19.39
2022-08-14T03:08:11.104Z,19.37
2022-08-14T03:09:10.107Z,19.30
2022-08-14T03:10:26.732Z,19.26
2022-08-14T03:11:11.077Z,19.23
2022-08-14T03:12:10.058Z,19.22
2022-08-14T03:13:19.443Z,19.23
2022-08-14T03:14:11.027Z,19.20
2022-08-14T03:15:14.053Z,19.16
2022-08-14T03:16:19.784Z,19.16
2022-08-14T03:17:11.009Z,19.12
2022-08-14T03:18:09.979Z,19.12
2022-08-14T03:19:09.978Z,19.12
2022-08-14T03:20:11.076Z,19.09
2022-08-14T03:21:09.945Z,19.09
2022-08-14T03:22:17.692Z,19.09
2022-08-14T03:23:10.918Z,19.09
2022-08-14T03:24:21.462Z,19.04
2022-08-14T03:25:10.935Z,19.00
2022-08-14T03:26:13.114Z,19.01
2022-08-14T03:27:10.869Z,19.00
2022-08-14T03:28:14.812Z,18.98
2022-08-14T03:29:14.090Z,19.01
2022-08-14T03:30:14.525Z,19.01
2022-08-14T03:31:13.022Z,19.00
2022-08-14T03:32:09.790Z,19.01
2022-08-14T03:33:10.647Z,19.01
2022-08-14T03:34:10.063Z,19.00
2022-08-14T03:35:09.770Z,19.01
2022-08-14T03:37:29.018Z,19.04
2022-08-14T03:37:51.459Z,18.98
2022-08-14T03:39:14.764Z,18.94
2022-08-14T03:39:21.570Z,18.92
2022-08-14T03:40:11.255Z,18.94
2022-08-14T03:41:09.678Z,18.96
2022-08-14T03:42:19.461Z,18.97
2022-08-14T03:43:10.641Z,19.00
2022-08-14T03:45:19.128Z,19.00
2022-08-14T03:45:27.670Z,19.00
2022-08-14T03:46:51.780Z,19.04
2022-08-14T03:47:11.822Z,19.05
2022-08-14T03:48:11.107Z,19.05
2022-08-14T03:49:10.563Z,19.04
2022-08-14T03:50:09.560Z,18.97
2022-08-14T03:51:09.561Z,18.97
2022-08-14T03:52:37.561Z,18.94
2022-08-14T03:53:10.522Z,18.96
2022-08-14T03:54:09.491Z,18.92
2022-08-14T03:55:10.491Z,18.94
2022-08-14T03:56:09.463Z,18.94
2022-08-14T03:57:09.725Z,18.96
2022-08-14T03:58:09.432Z,18.94
2022-08-14T03:59:10.372Z,18.97
2022-08-14T04:00:13.607Z,18.98
2022-08-14T04:01:10.498Z,19.00
2022-08-14T04:02:33.036Z,19.01
2022-08-14T04:03:10.379Z,18.98
2022-08-14T04:04:09.350Z,18.98
2022-08-14T04:05:11.777Z,18.98
2022-08-14T04:06:09.351Z,18.98
2022-08-14T04:07:09.324Z,18.97
2022-08-14T04:08:22.628Z,18.96
2022-08-14T04:09:10.284Z,18.94
2022-08-14T04:10:09.301Z,18.91
2022-08-14T04:11:10.449Z,18.89
2022-08-14T04:12:13.554Z,18.88
2022-08-14T04:13:09.236Z,18.92
2022-08-14T04:14:09.215Z,18.94
2022-08-14T04:15:10.203Z,18.97
2022-08-14T04:16:12.269Z,18.97
2022-08-14T04:17:10.185Z,18.97
2022-08-14T04:18:09.205Z,18.96
2022-08-14T04:19:09.152Z,18.96
2022-08-14T04:20:09.923Z,18.94
2022-08-14T04:21:09.136Z,18.97
2022-08-14T04:22:09.118Z,18.96
2022-08-14T04:23:09.093Z,18.94
2022-08-14T04:24:10.075Z,18.92
2022-08-14T04:25:09.075Z,18.92
2022-08-14T04:26:14.874Z,18.94
2022-08-14T04:27:10.065Z,18.92
2022-08-14T04:28:09.025Z,18.94
2022-08-14T04:29:14.495Z,18.94
2022-08-14T04:30:09.976Z,18.94
2022-08-14T04:31:10.006Z,18.96
2022-08-14T04:32:57.282Z,18.98
2022-08-14T04:33:18.429Z,18.98
2022-08-14T04:34:17.068Z,19.04
2022-08-14T04:35:11.097Z,19.04
2022-08-14T04:36:09.299Z,19.04
2022-08-14T04:37:10.652Z,19.04
2022-08-14T04:38:36.773Z,19.04
2022-08-14T04:39:09.876Z,18.98
2022-08-14T04:40:08.973Z,18.98
2022-08-14T04:41:08.838Z,18.97
2022-08-14T04:42:14.003Z,18.96
2022-08-14T04:43:14.243Z,18.96
2022-08-14T04:44:08.799Z,18.94
2022-08-14T04:45:09.789Z,18.91
2022-08-14T04:46:08.790Z,18.89
2022-08-14T04:47:08.769Z,18.91
2022-08-14T04:48:09.975Z,18.92
2022-08-14T04:49:08.741Z,18.92
2022-08-14T04:50:09.743Z,18.92
2022-08-14T04:51:08.720Z,18.92
2022-08-14T04:52:18.945Z,18.92
2022-08-14T04:53:09.687Z,18.96
2022-08-14T04:54:08.659Z,19.00
2022-08-14T04:55:08.680Z,19.05
2022-08-14T04:56:30.155Z,19.11
2022-08-14T04:57:09.640Z,19.12
2022-08-14T04:58:08.708Z,19.12
2022-08-14T04:59:11.155Z,19.16
2022-08-14T05:00:08.578Z,19.16
2022-08-14T05:01:12.688Z,19.16
2022-08-14T05:02:09.683Z,19.15
2022-08-14T05:03:08.551Z,19.15
2022-08-14T05:04:08.784Z,19.19
2022-08-14T05:05:09.555Z,19.20
2022-08-14T05:06:37.739Z,19.23
2022-08-14T05:07:09.522Z,19.26
2022-08-14T05:08:09.548Z,19.27
2022-08-14T05:09:14.458Z,19.26
2022-08-14T05:10:13.336Z,19.24
2022-08-14T05:11:12.023Z,19.23
2022-08-14T05:13:13.309Z,19.23
2022-08-14T05:13:13.386Z,19.23
2022-08-14T05:14:34.228Z,19.23
2022-08-14T05:15:09.461Z,19.24
2022-08-14T05:16:08.370Z,19.23
2022-08-14T05:17:08.362Z,19.26
2022-08-14T05:18:17.344Z,19.26
2022-08-14T05:19:26.900Z,19.20
2022-08-14T05:21:55.567Z,19.15
2022-08-14T05:21:57.306Z,19.11
2022-08-14T05:22:15.715Z,19.09
2022-08-14T05:23:11.139Z,19.08
2022-08-14T05:24:08.264Z,19.07
2022-08-14T05:25:09.264Z,19.07
2022-08-14T05:26:08.233Z,19.05
2022-08-14T05:27:08.268Z,19.07
2022-08-14T05:28:12.365Z,19.07
2022-08-14T05:29:11.635Z,19.09
2022-08-14T05:30:08.438Z,19.12
2022-08-14T05:31:08.164Z,19.15
2022-08-14T05:32:08.154Z,19.11
2022-08-14T05:33:08.133Z,19.11
2022-08-14T05:34:08.132Z,19.08
2022-08-14T05:35:08.114Z,19.05
2022-08-14T05:36:08.084Z,19.04
2022-08-14T05:37:09.091Z,19.04
2022-08-14T05:38:10.695Z,18.98
2022-08-14T05:39:08.227Z,18.97
2022-08-14T05:40:08.025Z,18.98
2022-08-14T05:41:08.702Z,18.98
2022-08-14T05:42:10.059Z,19.01
2022-08-14T05:43:08.993Z,19.05
2022-08-14T05:44:07.985Z,19.07
2022-08-14T05:45:11.313Z,19.08
2022-08-14T05:46:08.955Z,19.11
2022-08-14T05:47:07.977Z,19.12
2022-08-14T05:48:07.933Z,19.12
2022-08-14T05:49:07.937Z,19.15
2022-08-14T05:50:07.896Z,19.17
2022-08-14T05:51:08.886Z,19.19
2022-08-14T05:52:09.955Z,19.23
2022-08-14T05:53:07.887Z,19.23
2022-08-14T05:54:12.695Z,19.27
2022-08-14T05:55:08.826Z,19.30
2022-08-14T05:56:07.817Z,19.32
2022-08-14T05:57:07.820Z,19.35
2022-08-14T05:58:07.787Z,19.35
2022-08-14T05:59:07.767Z,19.37
2022-08-14T06:00:07.778Z,19.41
2022-08-14T06:01:07.853Z,19.41
2022-08-14T06:02:07.748Z,19.42
2022-08-14T06:03:07.719Z,19.44
2022-08-14T06:04:07.711Z,19.48
2022-08-14T06:05:07.699Z,19.53
2022-08-14T06:06:07.706Z,19.55
2022-08-14T06:07:07.690Z,19.59
2022-08-14T06:08:08.813Z,19.60
2022-08-14T06:09:09.897Z,19.63
2022-08-14T06:10:07.629Z,19.66
2022-08-14T06:11:07.634Z,19.71
2022-08-14T06:12:07.619Z,19.77
2022-08-14T06:13:07.833Z,19.81
2022-08-14T06:14:12.326Z,19.87
2022-08-14T06:15:08.559Z,19.90
2022-08-14T06:16:07.549Z,19.92
2022-08-14T06:17:07.564Z,19.93
2022-08-14T06:18:07.510Z,19.94
2022-08-14T06:19:07.541Z,19.94
2022-08-14T06:20:07.494Z,19.97
2022-08-14T06:21:13.564Z,19.99
2022-08-14T06:22:08.877Z,20.00
2022-08-14T06:23:07.451Z,20.04
2022-08-14T06:24:10.630Z,20.08
2022-08-14T06:25:08.468Z,20.10
2022-08-14T06:26:07.450Z,20.12
2022-08-14T06:27:10.155Z,20.14
2022-08-14T06:28:07.380Z,20.17
2022-08-14T06:29:08.392Z,20.19
2022-08-14T06:30:07.361Z,20.22
2022-08-14T06:31:07.353Z,20.27
2022-08-14T06:32:52.543Z,20.33
2022-08-14T06:33:08.312Z,20.34
2022-08-14T06:35:09.432Z,20.39
2022-08-14T06:35:12.916Z,20.46
2022-08-14T06:36:08.282Z,20.52
2022-08-14T06:37:07.282Z,20.58
2022-08-14T06:38:07.279Z,20.63
2022-08-14T06:39:10.101Z,20.67
2022-08-14T06:40:07.289Z,20.71
2022-08-14T06:41:10.873Z,20.74
2022-08-14T06:42:07.225Z,20.77
2022-08-14T06:43:08.183Z,20.80
2022-08-14T06:44:07.172Z,20.86
2022-08-14T06:45:07.164Z,20.90
2022-08-14T06:46:07.143Z,20.96
2022-08-14T06:47:08.145Z,21.01
2022-08-14T06:48:12.937Z,21.07
2022-08-14T06:49:08.095Z,21.11
2022-08-14T06:50:07.091Z,21.15
2022-08-14T06:51:07.076Z,21.22
2022-08-14T06:52:07.115Z,21.26
2022-08-14T06:53:07.053Z,21.29
2022-08-14T06:54:08.375Z,21.32
2022-08-14T06:55:07.022Z,21.37
2022-08-14T06:56:07.016Z,21.41
2022-08-14T06:57:07.012Z,21.43
2022-08-14T06:58:06.981Z,21.43
2022-08-14T06:59:07.955Z,21.47
2022-08-14T07:00:07.952Z,21.48
2022-08-14T07:01:07.970Z,21.51
2022-08-14T07:02:06.944Z,21.54
2022-08-14T07:03:07.931Z,21.58
2022-08-14T07:04:06.905Z,21.60
2022-08-14T07:05:07.899Z,21.63
2022-08-14T07:06:21.256Z,21.63
2022-08-14T07:07:07.864Z,21.69
2022-08-14T07:08:06.847Z,21.70
2022-08-14T07:09:06.846Z,21.75
2022-08-14T07:10:06.874Z,21.77
2022-08-14T07:11:06.797Z,21.80
2022-08-14T07:12:06.806Z,21.84
2022-08-14T07:13:07.062Z,21.89
2022-08-14T07:14:06.796Z,21.92
2022-08-14T07:15:06.770Z,21.94
2022-08-14T07:16:06.745Z,21.97
2022-08-14T07:17:06.741Z,22.03
2022-08-14T07:18:08.960Z,22.08
2022-08-14T07:19:06.710Z,22.12
2022-08-14T07:20:07.400Z,22.19
2022-08-14T07:21:07.295Z,22.26
2022-08-14T07:22:06.679Z,22.33
2022-08-14T07:23:10.951Z,22.38
2022-08-14T07:24:06.628Z,22.44
2022-08-14T07:25:06.596Z,22.51
2022-08-14T07:26:06.607Z,22.53
2022-08-14T07:27:06.597Z,22.59
2022-08-14T07:28:06.588Z,22.67
2022-08-14T07:29:06.559Z,22.71
2022-08-14T07:30:06.578Z,22.77
2022-08-14T07:31:06.527Z,22.81
2022-08-14T07:32:06.538Z,22.88
2022-08-14T07:33:06.509Z,22.91
2022-08-14T07:34:06.490Z,22.98
2022-08-14T07:35:07.478Z,23.02
2022-08-14T07:36:26.342Z,23.07
2022-08-14T07:37:07.471Z,23.11
2022-08-14T07:38:06.441Z,23.14
2022-08-14T07:39:12.355Z,23.17
2022-08-14T07:40:07.501Z,23.20
2022-08-14T07:41:11.857Z,23.26
2022-08-14T07:42:07.400Z,23.26
2022-08-14T07:43:14.855Z,23.32
2022-08-14T07:44:28.808Z,23.36
2022-08-14T07:45:07.341Z,23.39
2022-08-14T07:46:06.341Z,23.42
2022-08-14T07:47:06.344Z,23.45
2022-08-14T07:48:06.311Z,23.51
2022-08-14T07:49:06.292Z,23.54
2022-08-14T07:50:06.284Z,23.58
2022-08-14T07:51:11.121Z,23.62
2022-08-14T07:52:08.074Z,23.64
2022-08-14T07:53:06.252Z,23.70
2022-08-14T07:54:11.359Z,23.74
2022-08-14T07:55:07.211Z,23.77
2022-08-14T07:56:21.363Z,23.82
2022-08-14T07:57:12.535Z,23.86
2022-08-14T07:58:07.605Z,23.89
2022-08-14T07:59:09.110Z,23.92
2022-08-14T08:00:06.143Z,23.95
2022-08-14T08:01:06.134Z,23.99
2022-08-14T08:02:06.131Z,23.99
2022-08-14T08:03:07.163Z,24.01
2022-08-14T08:04:16.487Z,24.03
2022-08-14T08:05:07.072Z,24.04
2022-08-14T08:06:10.507Z,24.07
2022-08-14T08:07:07.062Z,24.09
2022-08-14T08:08:08.242Z,24.11
2022-08-14T08:09:07.016Z,24.14
2022-08-14T08:10:06.014Z,24.19
2022-08-14T08:11:08.483Z,24.22
2022-08-14T08:12:09.347Z,24.25
2022-08-14T08:13:06.985Z,24.28
2022-08-14T08:14:05.978Z,24.32
2022-08-14T08:15:07.811Z,24.34
2022-08-14T08:16:05.956Z,24.38
2022-08-14T08:17:05.952Z,24.43
2022-08-14T08:18:05.917Z,24.47
2022-08-14T08:19:12.644Z,24.55
2022-08-14T08:20:06.966Z,24.59
2022-08-14T08:21:05.865Z,24.62
2022-08-14T08:22:05.919Z,24.63
2022-08-14T08:23:06.085Z,24.68
2022-08-14T08:24:05.826Z,24.74
2022-08-14T08:25:13.498Z,24.74
2022-08-14T08:26:06.842Z,24.78
2022-08-14T08:27:05.779Z,24.81
2022-08-14T08:28:08.285Z,24.85
2022-08-14T08:29:05.750Z,24.86
2022-08-14T08:30:05.736Z,24.89
2022-08-14T08:31:05.761Z,24.93
2022-08-14T08:32:06.055Z,24.96
2022-08-14T08:33:05.708Z,24.99
2022-08-14T08:34:05.696Z,24.97
2022-08-14T08:35:05.668Z,25.00
2022-08-14T08:36:05.659Z,25.01
2022-08-14T08:37:07.412Z,25.03
2022-08-14T08:39:14.007Z,25.04
2022-08-14T08:39:15.620Z,25.06
2022-08-14T08:40:06.675Z,25.06
2022-08-14T08:41:05.588Z,25.09
2022-08-14T08:42:06.579Z,25.11
2022-08-14T08:43:05.579Z,25.12
2022-08-14T08:44:05.834Z,25.12
2022-08-14T08:45:06.543Z,25.12
2022-08-14T08:46:06.542Z,25.14
2022-08-14T08:47:06.966Z,25.15
2022-08-14T08:48:17.859Z,25.19
2022-08-14T08:49:07.563Z,25.21
2022-08-14T08:50:23.243Z,25.24
2022-08-14T08:51:05.467Z,25.24
2022-08-14T08:52:05.451Z,25.24
2022-08-14T08:53:05.465Z,25.26
2022-08-14T08:54:05.423Z,25.29
2022-08-14T08:55:05.422Z,25.31
2022-08-14T08:56:05.461Z,25.34
2022-08-14T08:57:05.393Z,25.36
2022-08-14T08:58:05.550Z,25.37
2022-08-14T08:59:06.361Z,25.40
2022-08-14T09:00:10.073Z,25.44
2022-08-14T09:01:06.354Z,25.46
2022-08-14T09:02:05.429Z,25.49
2022-08-14T09:03:05.313Z,25.51
2022-08-14T09:04:07.559Z,25.55
2022-08-14T09:05:06.284Z,25.56
2022-08-14T09:06:23.260Z,25.58
2022-08-14T09:07:09.818Z,25.61
2022-08-14T09:08:05.247Z,25.62
2022-08-14T09:09:05.224Z,25.66
2022-08-14T09:10:05.214Z,25.67
2022-08-14T09:11:20.913Z,25.71
2022-08-14T09:12:06.265Z,25.77
2022-08-14T09:13:06.858Z,25.86
2022-08-14T09:14:05.518Z,25.92
2022-08-14T09:15:08.910Z,26.01
2022-08-14T09:16:18.856Z,26.04
2022-08-14T09:17:06.116Z,26.08
2022-08-14T09:18:05.099Z,26.10
2022-08-14T09:19:05.114Z,26.10
2022-08-14T09:20:05.249Z,26.11
2022-08-14T09:21:05.064Z,26.08
2022-08-14T09:22:35.454Z,26.08
2022-08-14T09:23:06.037Z,26.10
2022-08-14T09:24:28.020Z,26.11
2022-08-14T09:25:06.965Z,26.15
2022-08-14T09:26:21.157Z,26.16
2022-08-14T09:27:06.872Z,26.15
2022-08-14T09:28:05.025Z,26.18
2022-08-14T09:29:05.000Z,26.16
2022-08-14T09:30:31.692Z,26.18
2022-08-14T09:31:11.944Z,26.22
2022-08-14T09:32:57.690Z,26.27
2022-08-14T09:33:11.529Z,26.33
2022-08-14T09:34:19.686Z,26.36
2022-08-14T09:35:08.346Z,26.37
2022-08-14T09:36:04.870Z,26.39
2022-08-14T09:37:04.879Z,26.39
2022-08-14T09:38:04.849Z,26.45
2022-08-14T09:39:05.853Z,26.52
2022-08-14T09:40:04.844Z,26.56
2022-08-14T09:41:04.793Z,26.61
2022-08-14T09:42:21.564Z,26.66
2022-08-14T09:43:05.776Z,26.70
2022-08-14T09:44:06.419Z,26.74
2022-08-14T09:45:08.521Z,26.76
2022-08-14T09:46:04.722Z,26.76
2022-08-14T09:47:04.711Z,26.74
2022-08-14T09:48:04.742Z,26.74
2022-08-14T09:49:04.743Z,26.73
2022-08-14T09:50:04.672Z,26.76
2022-08-14T09:51:45.190Z,26.85
2022-08-14T09:52:36.457Z,26.89
2022-08-14T09:54:18.037Z,26.96
2022-08-14T09:54:36.427Z,27.00
2022-08-14T09:55:41.618Z,27.00
2022-08-14T09:56:36.395Z,27.00
2022-08-14T09:57:35.449Z,27.05
2022-08-14T09:58:35.387Z,27.08
2022-08-14T09:59:36.301Z,27.13
2022-08-14T10:00:35.337Z,27.16
2022-08-14T10:01:35.318Z,27.20
2022-08-14T10:02:35.349Z,27.20
2022-08-14T10:03:35.307Z,27.23
2022-08-14T10:04:38.386Z,27.26
2022-08-14T10:05:39.122Z,27.29
2022-08-14T10:06:35.278Z,27.33
2022-08-14T10:07:35.262Z,27.33
2022-08-14T10:08:35.275Z,27.38
2022-08-14T10:09:35.478Z,27.38
2022-08-14T10:10:35.222Z,27.40
2022-08-14T10:11:35.569Z,27.43
2022-08-14T10:12:35.280Z,27.41
2022-08-14T10:13:42.878Z,27.40
2022-08-14T10:14:37.083Z,27.37
2022-08-14T10:15:35.138Z,27.35
2022-08-14T10:16:35.175Z,27.34
2022-08-14T10:17:38.878Z,27.34
2022-08-14T10:18:35.090Z,27.33
2022-08-14T10:19:35.654Z,27.35
2022-08-14T10:20:41.095Z,27.40
2022-08-14T10:21:38.668Z,27.43
2022-08-14T10:23:15.098Z,27.44
2022-08-14T10:23:36.013Z,27.45
2022-08-14T10:24:37.442Z,27.47
2022-08-14T10:25:34.991Z,27.52
2022-08-14T10:26:35.000Z,27.55
2022-08-14T10:27:34.971Z,27.58
2022-08-14T10:29:03.832Z,27.64
2022-08-14T10:29:36.057Z,27.71
2022-08-14T10:30:34.933Z,27.76
2022-08-14T10:31:44.744Z,27.79
2022-08-14T10:32:39.922Z,27.82
2022-08-14T10:33:35.883Z,27.86
2022-08-14T10:34:36.561Z,27.93
2022-08-14T10:35:34.880Z,27.98
2022-08-14T10:36:40.740Z,28.06
2022-08-14T10:37:35.834Z,28.10
2022-08-14T10:38:34.844Z,28.15
2022-08-14T10:39:34.924Z,28.16
2022-08-14T10:40:37.884Z,28.22
2022-08-14T10:41:34.785Z,28.23
2022-08-14T10:42:35.818Z,28.31
2022-08-14T10:43:34.794Z,28.40
2022-08-14T10:44:34.777Z,28.47
2022-08-14T10:45:35.733Z,28.46
2022-08-14T10:47:39.164Z,28.46
2022-08-14T10:47:40.917Z,28.47
2022-08-14T10:48:43.408Z,28.46
2022-08-14T10:49:35.696Z,28.50
2022-08-14T10:50:34.676Z,28.55
2022-08-14T10:51:36.280Z,28.57
2022-08-14T10:52:35.709Z,28.64
2022-08-14T10:53:34.627Z,28.68
2022-08-14T10:54:36.149Z,28.71
2022-08-14T10:55:35.597Z,28.71
2022-08-14T10:56:35.106Z,28.74
2022-08-14T10:57:34.616Z,28.77
2022-08-14T10:58:34.577Z,28.78
2022-08-14T10:59:37.304Z,28.80
2022-08-14T11:00:36.017Z,28.78
2022-08-14T11:01:41.488Z,28.80
2022-08-14T11:02:45.192Z,28.87
2022-08-14T11:03:55.192Z,28.94
2022-08-14T11:04:35.519Z,28.96
2022-08-14T11:05:34.473Z,29.00
2022-08-14T11:06:34.461Z,29.07
2022-08-14T11:07:34.449Z,29.09
2022-08-14T11:08:34.453Z,29.06
2022-08-14T11:09:34.443Z,29.09
2022-08-14T11:10:34.420Z,29.10
2022-08-14T11:11:35.994Z,29.12
2022-08-14T11:12:40.410Z,29.13
2022-08-14T11:13:35.359Z,29.16
2022-08-14T11:14:34.377Z,29.20
2022-08-14T11:15:34.328Z,29.25
2022-08-14T11:16:34.328Z,29.25
2022-08-14T11:17:34.332Z,29.30
2022-08-14T11:18:36.222Z,29.32
2022-08-14T11:19:35.291Z,29.39
2022-08-14T11:20:34.272Z,29.40
2022-08-14T11:21:34.463Z,29.44
2022-08-14T11:22:55.729Z,29.46
2022-08-14T11:23:37.925Z,29.49
2022-08-14T11:24:50.739Z,29.55
2022-08-14T11:25:43.588Z,29.59
2022-08-14T11:26:36.096Z,29.61
2022-08-14T11:27:35.296Z,29.65
2022-08-14T11:28:46.906Z,29.68
2022-08-14T11:29:36.158Z,29.71
2022-08-14T11:30:51.550Z,29.69
2022-08-14T11:31:38.712Z,29.69
2022-08-14T11:32:34.113Z,29.74
2022-08-14T11:33:34.096Z,29.79
2022-08-14T11:34:34.912Z,29.87
2022-08-14T11:35:36.929Z,29.96
2022-08-14T11:37:02.494Z,30.10
2022-08-14T11:37:40.618Z,30.13
2022-08-14T11:38:35.026Z,30.17
2022-08-14T11:39:36.591Z,30.18
2022-08-14T11:40:34.006Z,30.17
2022-08-14T11:41:34.006Z,30.17
2022-08-14T11:42:57.999Z,30.13
2022-08-14T11:43:34.966Z,30.14
2022-08-14T11:44:45.814Z,30.11
2022-08-14T11:45:37.203Z,30.06
2022-08-14T11:46:37.401Z,30.08
2022-08-14T11:47:35.354Z,30.11
2022-08-14T11:48:59.709Z,30.14
2022-08-14T11:49:35.330Z,30.14
2022-08-14T11:50:37.855Z,30.16
2022-08-14T11:51:50.710Z,30.14
2022-08-14T11:52:34.907Z,30.16
2022-08-14T11:53:34.839Z,30.14
2022-08-14T11:54:34.641Z,30.13
2022-08-14T11:55:33.809Z,30.11
2022-08-14T11:56:33.787Z,30.11
2022-08-14T11:57:33.818Z,30.14
2022-08-14T11:58:33.802Z,30.14
2022-08-14T11:59:34.176Z,30.16
2022-08-14T12:00:39.542Z,30.18
2022-08-14T12:01:38.134Z,30.20
2022-08-14T12:03:00.706Z,30.27
2022-08-14T12:03:45.944Z,30.36
2022-08-14T12:04:34.731Z,30.48
2022-08-14T12:05:33.731Z,30.61
2022-08-14T12:06:39.647Z,30.70
2022-08-14T12:07:34.781Z,30.76
2022-08-14T12:08:33.633Z,30.78
2022-08-14T12:09:33.632Z,30.77
2022-08-14T12:10:37.942Z,30.81
2022-08-14T12:11:34.602Z,30.86
2022-08-14T12:12:47.221Z,30.89
2022-08-14T12:13:34.757Z,30.93
2022-08-14T12:14:35.416Z,30.98
2022-08-14T12:15:33.674Z,30.98
2022-08-14T12:16:33.543Z,30.93
2022-08-14T12:17:38.164Z,30.89
2022-08-14T12:18:34.515Z,30.86
2022-08-14T12:19:35.053Z,30.86
2022-08-14T12:20:33.501Z,30.86
2022-08-14T12:21:33.465Z,30.83
2022-08-14T12:22:33.452Z,30.88
2022-08-14T12:23:33.434Z,30.85
2022-08-14T12:24:36.808Z,30.85
2022-08-14T12:25:34.875Z,30.71
2022-08-14T12:26:40.734Z,30.65
2022-08-14T12:27:34.418Z,30.67
2022-08-14T12:28:59.780Z,30.71
2022-08-14T12:29:34.908Z,30.78
2022-08-14T12:30:39.812Z,30.86
2022-08-14T12:31:36.235Z,30.88
2022-08-14T12:32:34.336Z,30.92
2022-08-14T12:33:34.220Z,30.96
2022-08-14T12:34:33.287Z,31.04
2022-08-14T12:35:33.307Z,31.11
2022-08-14T12:36:34.276Z,31.18
2022-08-14T12:37:33.260Z,31.15
2022-08-14T12:38:33.273Z,31.05
2022-08-14T12:39:40.467Z,31.10
2022-08-14T12:40:34.246Z,31.23
2022-08-14T12:41:34.240Z,31.29
2022-08-14T12:42:34.539Z,31.32
2022-08-14T12:43:33.228Z,31.36
2022-08-14T12:44:33.177Z,31.41
2022-08-14T12:45:33.242Z,31.36
2022-08-14T12:46:33.148Z,31.29
2022-08-14T12:47:36.367Z,31.35
2022-08-14T12:48:33.140Z,31.35
2022-08-14T12:49:33.126Z,31.36
2022-08-14T12:50:33.119Z,31.41
2022-08-14T12:51:33.092Z,31.48
2022-08-14T12:52:43.221Z,31.29